May 28, 2022

Time Code Weather Temp. Visibility Ceiling Wind METAR/SPECI
5:30 am
V
46 °F 5⅝ mi - 100° 100° 2 kt METAR LFLW 280330Z AUTO 10002KT 9000 NSC 08/07 Q1019
5:00 am
V
46 °F 6¼ mi+ - 130° 130° 3 kt METAR LFLW 280300Z AUTO 13003KT CAVOK 08/07 Q1020
4:30 am
V
46 °F 6¼ mi+ - 110° 110° 1 kt METAR LFLW 280230Z AUTO 11001KT CAVOK 08/07 Q1020
4:00 am
V
46 °F 6¼ mi+ - Var Var 1 kt METAR LFLW 280200Z AUTO VRB01KT CAVOK 08/08 Q1020
3:30 am
V
48 °F 6¼ mi+ - Var Var 2 kt METAR LFLW 280130Z AUTO VRB02KT CAVOK 09/08 Q1021
3:00 am
V
50 °F 6¼ mi+ - Var Var 2 kt METAR LFLW 280100Z AUTO VRB02KT CAVOK 10/08 Q1021
2:30 am
V
52 °F 6¼ mi+ - 210° 210° 3 kt METAR LFLW 280030Z AUTO 21003KT CAVOK 11/10 Q1021
2:00 am
V
52 °F 6¼ mi+ - Var 000° 0 kt METAR LFLW 280000Z AUTO 00000KT CAVOK 11/10 Q1021
1:30 am
V
52 °F 6¼ mi+ - Var Var 3 kt METAR LFLW 272330Z AUTO VRB03KT CAVOK 11/10 Q1022
1:00 am
V
52 °F 6¼ mi+ - Var Var 2 kt METAR LFLW 272300Z AUTO VRB02KT CAVOK 11/09 Q1022
12:30 am
V
54 °F 6¼ mi+ - Var Var 2 kt METAR LFLW 272230Z AUTO VRB02KT CAVOK 12/09 Q1022
12:00 am
V
55 °F 6¼ mi+ - Var Var 2 kt METAR LFLW 272200Z AUTO VRB02KT CAVOK 13/10 Q1022

May 27, 2022

Time Code Weather Temp. Visibility Ceiling Wind METAR/SPECI
11:30 pm
V
59 °F 6¼ mi+ - 260° 260° 2 kt METAR LFLW 272130Z AUTO 26002KT CAVOK 15/10 Q1022
11:00 pm
V
61 °F 6¼ mi+ - Var Var 3 kt METAR LFLW 272100Z AUTO VRB03KT CAVOK 16/10 Q1022
10:30 pm
V
63 °F 6¼ mi+ - 310° 310° 4 kt METAR LFLW 272030Z AUTO 31004KT 280V340 CAVOK 17/10 Q1022
10:00 pm
V
64 °F 6¼ mi+ - 310° 310° 4 kt METAR LFLW 272000Z AUTO 31004KT 280V350 CAVOK 18/10 Q1022
9:30 pm
V
66 °F 6¼ mi+ - 310° 310° 4 kt METAR LFLW 271930Z AUTO 31004KT 270V350 CAVOK 19/10 Q1022
9:00 pm
V
68 °F 6¼ mi+ - 320° 320° 5 kt METAR LFLW 271900Z AUTO 32005KT 270V360 CAVOK 20/10 Q1022
8:30 pm
V
70 °F 6¼ mi+ - 320° 320° 6 kt METAR LFLW 271830Z AUTO 32006KT 280V350 CAVOK 21/11 Q1022
8:00 pm
V
72 °F 6¼ mi+ - 320° 320° 8 kt METAR LFLW 271800Z AUTO 32008KT 270V360 CAVOK 22/11 Q1022
7:30 pm
V
72 °F 6¼ mi+ - 340° 340° 10 kt METAR LFLW 271730Z AUTO 34010KT CAVOK 22/11 Q1022
7:00 pm
V
73 °F 6¼ mi+ - 330° 330° 8 kt METAR LFLW 271700Z AUTO 33008KT 280V360 CAVOK 23/12 Q1022 NOSIG
6:30 pm
V
75 °F 6¼ mi+ - 310° 310° 9 kt METAR LFLW 271630Z AUTO 31009KT 280V350 CAVOK 24/12 Q1022 NOSIG
6:00 pm
V
75 °F 6¼ mi+ - 330° 330° 9 kt METAR LFLW 271600Z AUTO 33009KT 290V040 CAVOK 24/13 Q1022 NOSIG
5:30 pm
V
75 °F 6¼ mi+ - 320° 320° 8 kt METAR LFLW 271530Z AUTO 32008KT 280V010 CAVOK 24/13 Q1022 NOSIG
5:00 pm
V
75 °F 6¼ mi+ - 330° 330° 8 kt METAR LFLW 271500Z AUTO 33008KT 260V360 CAVOK 24/13 Q1022 NOSIG
4:30 pm
V
75 °F 6¼ mi+ - 310° 310° 9 kt METAR LFLW 271430Z AUTO 31009KT 260V350 CAVOK 24/12 Q1023 NOSIG
Older data

Download our app

Easy access to all aviation weather on your mobile phone and tablet.
With many features not available on the website, like offline support and a personal airport list.

We and third parties follow your internet behavior on our website with cookies. If you continue, we assume you agree with our cookie policy. Learn more